Time;durP1;ratioP1;P1;durP2;ratioP2;P2;SDS_P1;SDS_P2;PMS_P1;PMS_P2;Temp;Humidity;BMP_temperature;BMP_pressure;BME280_temperature;BME280_humidity;BME280_pressure;Samples;Min_cycle;Max_cycle;Signal;HPM_P1;HPM_P2
2023/07/22 00:01:32;;;;;;;3.03;2.83;;;;;;;15.17;70.59;97897.19;4969963;28;20479;-81
2023/07/22 00:03:59;;;;;;;3.30;3.00;;;;;;;14.72;72.56;97906.69;4966416;28;20474;-81
2023/07/22 00:06:27;;;;;;;3.20;2.90;;;;;;;14.77;72.68;97906.81;4962827;28;20487;-82
2023/07/22 00:08:54;;;;;;;3.37;3.07;;;;;;;14.58;73.44;97909.84;4963454;28;20801;-81
2023/07/22 00:11:21;;;;;;;3.43;3.13;;;;;;;14.43;74.06;97904.78;4963605;28;20450;-82
2023/07/22 00:13:48;;;;;;;2.93;2.73;;;;;;;14.44;74.00;97903.72;4964622;28;20514;-82
2023/07/22 00:16:15;;;;;;;3.73;3.17;;;;;;;14.43;74.38;97900.16;4958601;28;20995;-82
2023/07/22 00:18:42;;;;;;;3.10;2.80;;;;;;;14.64;73.63;97907.00;4957434;28;20491;-81
2023/07/22 00:21:08;;;;;;;3.83;2.90;;;;;;;14.65;73.50;97913.28;4954999;28;20463;-82
2023/07/22 00:23:36;;;;;;;4.90;3.03;;;;;;;14.77;72.48;97909.53;4958518;28;20486;-82
2023/07/22 00:26:04;;;;;;;3.17;2.77;;;;;;;14.78;71.98;97908.47;4954039;28;20543;-81
2023/07/22 00:28:30;;;;;;;3.40;3.07;;;;;;;15.07;70.95;97900.50;4956346;28;20466;-81
2023/07/22 00:30:57;;;;;;;4.03;3.30;;;;;;;15.31;69.55;97898.63;4957781;28;20467;-82
2023/07/22 00:33:24;;;;;;;3.20;3.00;;;;;;;15.31;69.34;97891.25;4969625;28;20483;-81
2023/07/22 00:35:51;;;;;;;2.90;2.70;;;;;;;15.46;68.64;97897.09;4970203;28;20458;-82
2023/07/22 00:38:18;;;;;;;3.93;2.83;;;;;;;15.45;68.24;97900.88;4967692;28;20522;-82
2023/07/22 00:40:48;;;;;;;2.93;2.70;;;;;;;15.41;68.01;97899.69;4967139;28;20546;-81
2023/07/22 00:43:15;;;;;;;3.30;3.00;;;;;;;15.34;69.06;97890.78;4968082;28;20570;-82
2023/07/22 00:45:42;;;;;;;3.63;3.13;;;;;;;14.99;70.92;97898.94;4963946;28;20967;-82
2023/07/22 00:48:10;;;;;;;3.17;2.90;;;;;;;14.84;71.49;97903.16;4963986;28;20463;-82
2023/07/22 00:50:37;;;;;;;3.00;2.80;;;;;;;14.72;72.37;97900.41;4963504;28;21037;-81
2023/07/22 00:53:04;;;;;;;3.13;2.83;;;;;;;14.75;72.46;97900.75;4961168;28;20516;-81
2023/07/22 00:55:34;;;;;;;3.10;2.80;;;;;;;14.92;72.26;97894.66;4958707;28;20963;-82
2023/07/22 00:58:02;;;;;;;3.30;2.90;;;;;;;14.53;73.53;97886.00;4960225;28;20522;-82
2023/07/22 01:00:28;;;;;;;3.60;3.30;;;;;;;14.41;73.97;97893.28;4967606;28;20487;-82
2023/07/22 01:02:55;;;;;;;3.37;3.07;;;;;;;14.35;74.50;97886.00;4966761;28;20650;-82
2023/07/22 01:05:22;;;;;;;3.03;2.83;;;;;;;14.30;74.79;97885.84;4953621;28;20471;-82
2023/07/22 01:07:49;;;;;;;3.00;2.70;;;;;;;14.40;74.48;97888.88;4956944;28;20464;-82
2023/07/22 01:10:16;;;;;;;3.27;2.97;;;;;;;14.65;73.25;97895.03;4955277;28;20474;-81
2023/07/22 01:12:42;;;;;;;3.40;2.97;;;;;;;14.58;73.70;97888.88;4960232;28;20479;-82
2023/07/22 01:15:10;;;;;;;3.60;3.00;;;;;;;14.50;73.68;97881.03;4955851;28;20466;-82
2023/07/22 01:17:38;;;;;;;3.53;3.10;;;;;;;14.45;73.91;97886.31;4953061;28;20503;-82
2023/07/22 01:20:07;;;;;;;3.40;3.07;;;;;;;14.07;75.54;97890.13;4964475;28;20458;-81
2023/07/22 01:22:34;;;;;;;3.27;2.97;;;;;;;14.06;75.32;97888.47;4955623;28;20504;-81
2023/07/22 01:25:03;;;;;;;3.40;3.10;;;;;;;14.16;75.56;97889.84;4957596;28;20504;-81
2023/07/22 01:27:30;;;;;;;3.20;2.97;;;;;;;14.11;75.35;97882.34;4959477;28;20497;-81
2023/07/22 01:29:56;;;;;;;5.60;3.77;;;;;;;14.10;75.70;97876.06;4967005;28;20517;-81
2023/07/22 01:32:23;;;;;;;3.37;3.07;;;;;;;14.22;75.02;97873.41;4968357;28;20485;-81
2023/07/22 01:34:50;;;;;;;3.50;3.20;;;;;;;14.15;75.71;97882.72;4970052;28;20497;-82
2023/07/22 01:37:17;;;;;;;3.60;3.27;;;;;;;14.36;75.18;97869.44;4963926;28;20540;-81
2023/07/22 01:39:44;;;;;;;3.97;3.60;;;;;;;14.16;75.68;97874.34;4964320;28;20822;-81
2023/07/22 01:42:12;;;;;;;3.60;3.30;;;;;;;14.19;75.66;97873.03;4962873;28;20474;-81
2023/07/22 01:44:40;;;;;;;5.40;3.73;;;;;;;14.08;76.62;97878.19;4961244;28;20458;-81
2023/07/22 01:47:07;;;;;;;4.23;3.90;;;;;;;14.38;75.25;97880.09;4962117;28;20454;-81
2023/07/22 01:49:35;;;;;;;4.60;3.10;;;;;;;14.10;76.29;97876.06;4961082;28;20491;-81
2023/07/22 01:52:01;;;;;;;4.37;3.90;;;;;;;14.18;76.17;97868.66;4961618;28;20876;-81
2023/07/22 01:54:28;;;;;;;3.60;3.30;;;;;;;14.11;76.52;97868.75;4954354;28;20501;-81
2023/07/22 01:56:55;;;;;;;5.57;3.40;;;;;;;14.04;76.83;97876.97;4953700;28;20456;-81
2023/07/22 01:59:23;;;;;;;4.63;3.70;;;;;;;14.06;76.62;97863.97;4954338;28;20496;-81
2023/07/22 02:01:51;;;;;;;4.83;4.00;;;;;;;14.07;77.08;97868.38;4953529;28;20554;-81
2023/07/22 02:04:18;;;;;;;4.10;3.50;;;;;;;13.93;77.43;97874.22;4956327;28;20581;-81
2023/07/22 02:06:45;;;;;;;4.30;3.90;;;;;;;14.02;77.16;97872.81;4958857;28;20469;-81
2023/07/22 02:09:13;;;;;;;4.43;3.87;;;;;;;14.02;77.30;97879.09;4952351;28;20495;-81
2023/07/22 02:11:40;;;;;;;5.03;4.53;;;;;;;13.81;78.24;97882.28;4952974;28;20488;-81
2023/07/22 02:14:07;;;;;;;4.43;4.07;;;;;;;13.82;78.65;97880.41;4956429;28;20452;-81
2023/07/22 02:16:36;;;;;;;3.80;3.50;;;;;;;13.88;78.53;97883.06;4955873;28;20939;-81
2023/07/22 02:19:03;;;;;;;4.27;3.97;;;;;;;13.95;78.23;97889.25;4956394;28;20546;-81
2023/07/22 02:21:30;;;;;;;3.97;3.57;;;;;;;13.83;78.60;97885.63;4952402;28;20446;-81
2023/07/22 02:23:57;;;;;;;4.43;4.03;;;;;;;13.89;78.50;97878.44;4957644;28;20473;-81
2023/07/22 02:26:23;;;;;;;4.53;4.13;;;;;;;13.73;79.60;97888.03;4952110;28;21001;-81
2023/07/22 02:28:50;;;;;;;5.27;4.50;;;;;;;13.63;79.99;97885.00;4952647;28;20458;-81
2023/07/22 02:31:17;;;;;;;4.60;4.20;;;;;;;13.56;80.47;97886.97;4956444;28;20963;-81
2023/07/22 02:33:46;;;;;;;4.73;4.23;;;;;;;13.54;80.45;97895.34;4955342;28;20492;-81
2023/07/22 02:36:13;;;;;;;4.67;4.30;;;;;;;13.58;80.22;97895.72;4953858;28;20955;-81
2023/07/22 02:38:40;;;;;;;5.00;4.60;;;;;;;13.48;81.01;97887.25;4952511;28;20576;-81
2023/07/22 02:41:07;;;;;;;5.70;5.20;;;;;;;13.53;80.73;97890.13;4958149;28;20945;-81
2023/07/22 02:43:34;;;;;;;5.33;4.93;;;;;;;13.52;80.83;97893.91;4954281;28;20507;-82
2023/07/22 02:46:02;;;;;;;6.33;5.30;;;;;;;13.44;81.39;97893.13;4953122;28;20459;-81
2023/07/22 02:48:29;;;;;;;5.10;4.60;;;;;;;13.53;81.20;97890.13;4952274;28;20507;-81
2023/07/22 02:51:03;;;;;;;5.30;4.70;;;;;;;13.54;81.21;97897.22;4952519;28;20846;-81
2023/07/22 02:53:30;;;;;;;5.10;4.70;;;;;;;13.43;81.63;97891.47;4951626;28;20579;-81
2023/07/22 02:55:57;;;;;;;5.33;4.87;;;;;;;13.38;81.79;97888.59;4953141;28;20474;-81
2023/07/22 02:58:24;;;;;;;6.57;4.97;;;;;;;13.31;82.36;97892.44;4956216;28;20496;-82
2023/07/22 03:00:51;;;;;;;5.37;4.90;;;;;;;13.36;82.23;97885.25;4961319;28;20473;-81
2023/07/22 03:03:18;;;;;;;4.90;4.50;;;;;;;13.27;82.60;97875.75;4964179;28;20540;-81
2023/07/22 03:05:47;;;;;;;5.00;4.70;;;;;;;13.36;82.67;97879.81;4972195;28;20473;-81
2023/07/22 03:08:15;;;;;;;5.50;5.00;;;;;;;13.49;81.83;97883.47;4970272;28;20792;-81
2023/07/22 03:10:43;;;;;;;5.80;4.37;;;;;;;13.41;81.88;97882.69;4963389;28;20492;-81
2023/07/22 03:13:10;;;;;;;5.20;4.80;;;;;;;13.55;81.57;97882.59;4962993;28;20479;-81
2023/07/22 03:15:39;;;;;;;6.73;6.13;;;;;;;13.32;82.65;97881.31;4962368;28;20632;-81
2023/07/22 03:18:06;;;;;;;5.10;4.60;;;;;;;13.25;82.96;97883.28;4959916;28;20860;-81
2023/07/22 03:20:33;;;;;;;6.30;5.70;;;;;;;13.12;83.62;97878.75;4961154;28;20994;-81
2023/07/22 03:23:00;;;;;;;6.67;6.07;;;;;;;13.12;83.84;97884.19;4964563;28;21021;-82
2023/07/22 03:25:28;;;;;;;5.93;5.43;;;;;;;13.03;84.45;97879.25;4959398;28;20454;-82
2023/07/22 03:27:55;;;;;;;6.97;6.30;;;;;;;13.15;83.83;97888.34;4953541;28;20581;-82
2023/07/22 03:30:23;;;;;;;6.77;6.17;;;;;;;13.04;84.29;97880.91;4966506;28;20475;-81
2023/07/22 03:32:50;;;;;;;6.23;5.63;;;;;;;13.13;84.27;97875.00;4959417;28;20514;-81
2023/07/22 03:35:17;;;;;;;7.17;6.47;;;;;;;12.91;85.34;97876.44;4960507;28;20473;-82
2023/07/22 03:37:44;;;;;;;7.60;6.90;;;;;;;12.90;85.36;97882.94;4955822;28;20815;-81
2023/07/22 03:40:19;;;;;;;7.40;6.80;;;;;;;12.95;85.44;97877.66;4964213;28;20461;-80
2023/07/22 03:42:47;;;;;;;6.80;6.20;;;;;;;12.94;85.38;97881.44;4962138;28;20566;-81
2023/07/22 03:45:14;;;;;;;6.83;6.23;;;;;;;12.86;85.91;97889.00;4956517;28;20454;-81
2023/07/22 03:47:41;;;;;;;8.03;6.50;;;;;;;12.84;86.13;97886.50;4961816;28;20495;-80
2023/07/22 03:50:09;;;;;;;6.90;6.30;;;;;;;12.82;85.72;97882.34;4964827;28;20470;-81
2023/07/22 03:52:35;;;;;;;7.27;6.67;;;;;;;12.85;85.52;97882.75;4961113;28;20518;-81
2023/07/22 03:55:02;;;;;;;7.10;6.50;;;;;;;12.85;85.89;97888.19;4965641;28;20455;-81
2023/07/22 03:57:30;;;;;;;6.20;5.60;;;;;;;12.76;86.23;97884.06;4958299;28;20471;-81
2023/07/22 03:59:58;;;;;;;6.93;6.43;;;;;;;12.83;85.85;97892.16;4958002;28;20504;-81
2023/07/22 04:02:25;;;;;;;7.70;6.90;;;;;;;12.85;85.74;97890.91;4957522;28;20234;-81
2023/07/22 04:04:54;;;;;;;6.90;6.27;;;;;;;12.89;85.74;97891.28;4957169;28;20485;-81
2023/07/22 04:07:20;;;;;;;7.53;6.83;;;;;;;12.83;85.56;97894.88;4958478;28;20476;-81
2023/07/22 04:09:47;;;;;;;8.03;7.17;;;;;;;12.87;85.77;97888.78;4956099;28;20474;-81
2023/07/22 04:12:14;;;;;;;7.25;6.55;;;;;;;12.90;85.42;97892.97;4957821;28;21029;-81
2023/07/22 04:14:41;;;;;;;7.53;6.20;;;;;;;12.76;85.92;97884.91;4958909;28;20228;-81
2023/07/22 04:17:09;;;;;;;7.57;6.77;;;;;;;12.89;85.25;97883.16;4954414;28;20488;-81
2023/07/22 04:19:36;;;;;;;8.23;6.70;;;;;;;12.85;85.05;97892.78;4960605;28;20503;-81
2023/07/22 04:22:04;;;;;;;7.07;6.47;;;;;;;12.87;85.38;97896.94;4956913;28;20543;-81
2023/07/22 04:24:31;;;;;;;7.80;7.00;;;;;;;12.86;85.28;97891.72;4957248;28;20481;-81
2023/07/22 04:26:58;;;;;;;7.20;6.47;;;;;;;12.81;85.61;97884.25;4957147;28;20515;-81
2023/07/22 04:29:24;;;;;;;7.57;6.97;;;;;;;12.99;84.93;97887.03;4956746;28;20867;-81
2023/07/22 04:31:51;;;;;;;7.53;6.83;;;;;;;12.92;85.06;97888.13;4958855;28;20561;-81
2023/07/22 04:34:19;;;;;;;7.80;7.10;;;;;;;12.99;84.83;97880.78;4970392;28;20522;-82
2023/07/22 04:36:46;;;;;;;6.57;6.00;;;;;;;13.25;83.89;97888.72;4966835;28;20520;-81
2023/07/22 04:39:13;;;;;;;6.73;6.13;;;;;;;13.13;84.15;97890.47;4966256;28;20525;-81
2023/07/22 04:41:40;;;;;;;7.53;5.83;;;;;;;13.08;84.49;97887.56;4961563;28;20578;-81
2023/07/22 04:44:06;;;;;;;7.13;6.13;;;;;;;13.17;83.70;97880.84;4962862;28;20463;-82
2023/07/22 04:46:33;;;;;;;6.20;5.60;;;;;;;13.30;83.51;97886.19;4962125;28;20453;-82
2023/07/22 04:49:00;;;;;;;6.90;6.13;;;;;;;13.24;83.73;97880.78;4956530;28;20535;-81
2023/07/22 04:51:28;;;;;;;6.67;6.07;;;;;;;13.28;83.21;97877.41;4958542;28;20520;-81
2023/07/22 04:53:55;;;;;;;5.50;5.10;;;;;;;13.41;82.60;97877.25;4955216;28;20467;-82
2023/07/22 04:56:22;;;;;;;6.67;5.97;;;;;;;13.50;82.30;97882.41;4954115;28;21525;-81
2023/07/22 04:58:49;;;;;;;6.10;5.00;;;;;;;13.45;81.92;97889.34;4953453;28;20481;-81
2023/07/22 05:01:16;;;;;;;6.00;5.40;;;;;;;13.68;81.32;97888.69;4956490;28;20822;-82
2023/07/22 05:03:43;;;;;;;5.53;5.13;;;;;;;13.62;81.26;97895.06;4958909;28;20963;-81
2023/07/22 05:06:10;;;;;;;6.30;5.70;;;;;;;14.01;80.04;97891.03;4954679;28;20467;-81
2023/07/22 05:08:38;;;;;;;5.97;5.37;;;;;;;13.83;79.77;97895.66;4954111;28;20480;-82
2023/07/22 05:11:06;;;;;;;4.90;4.50;;;;;;;14.35;79.05;97900.44;4954150;28;20492;-82
2023/07/22 05:13:32;;;;;;;5.43;4.93;;;;;;;14.69;76.75;97904.41;4954170;28;20457;-82
2023/07/22 05:15:59;;;;;;;4.70;4.30;;;;;;;15.08;75.47;97891.25;4957112;28;20517;-82
2023/07/22 05:18:26;;;;;;;4.60;4.20;;;;;;;15.12;74.49;97906.06;4962645;28;20560;-82
2023/07/22 05:20:53;;;;;;;4.73;4.20;;;;;;;14.82;74.95;97905.28;4953785;28;20490;-82
2023/07/22 05:23:19;;;;;;;4.20;3.80;;;;;;;14.65;76.42;97905.94;4953646;28;20584;-82
2023/07/22 05:25:53;;;;;;;5.27;4.77;;;;;;;14.28;77.14;97909.78;4954012;28;20514;-81
2023/07/22 05:28:19;;;;;;;4.57;4.17;;;;;;;14.85;75.67;97904.81;4959139;28;20459;-79
2023/07/22 05:30:47;;;;;;;4.13;3.83;;;;;;;14.56;75.85;97901.91;4960041;28;20467;-82
2023/07/22 05:33:13;;;;;;;3.80;3.50;;;;;;;14.87;75.43;97913.59;4956243;28;20587;-82
2023/07/22 05:35:40;;;;;;;4.40;4.00;;;;;;;15.05;74.27;97910.78;4955762;28;20487;-82
2023/07/22 05:38:07;;;;;;;6.23;3.50;;;;;;;15.65;72.31;97916.91;4971696;28;20485;-80
2023/07/22 05:40:33;;;;;;;4.23;3.93;;;;;;;15.49;71.82;97919.50;4978560;28;20601;-82
2023/07/22 05:43:02;;;;;;;4.73;3.70;;;;;;;15.11;73.71;97915.31;4969849;28;20577;-82
2023/07/22 05:45:29;;;;;;;4.20;3.80;;;;;;;15.08;74.00;97921.22;4967160;28;20459;-82
2023/07/22 05:47:57;;;;;;;4.27;3.87;;;;;;;15.35;72.70;97927.06;4965160;28;20454;-82
2023/07/22 05:50:24;;;;;;;4.20;3.73;;;;;;;15.32;72.69;97939.28;4960734;28;20486;-82
2023/07/22 05:52:51;;;;;;;4.23;3.83;;;;;;;15.17;72.88;97933.47;4960616;28;21042;-82
2023/07/22 05:55:17;;;;;;;4.30;3.90;;;;;;;15.54;72.38;97933.28;4962405;28;20528;-82
2023/07/22 05:57:44;;;;;;;4.90;4.40;;;;;;;15.49;72.41;97930.44;4958896;28;20551;-83
2023/07/22 06:00:14;;;;;;;4.00;3.70;;;;;;;15.45;72.33;97930.91;4955571;28;20534;-82
2023/07/22 06:02:40;;;;;;;3.70;3.40;;;;;;;15.53;72.99;97928.88;4956953;28;20503;-82
2023/07/22 06:05:08;;;;;;;4.43;4.03;;;;;;;15.22;74.43;97933.59;4974434;28;20469;-82
2023/07/22 06:07:36;;;;;;;4.50;4.10;;;;;;;15.53;73.21;97932.44;4961740;28;20494;-82
2023/07/22 06:10:03;;;;;;;3.93;3.50;;;;;;;15.45;73.60;97927.34;4965221;28;20463;-82
2023/07/22 06:12:30;;;;;;;4.03;3.63;;;;;;;15.26;75.01;97939.41;4963557;28;20470;-82
2023/07/22 06:14:57;;;;;;;3.67;3.37;;;;;;;15.44;74.02;97925.66;4958863;28;20478;-82
2023/07/22 06:17:25;;;;;;;3.40;3.20;;;;;;;15.61;73.02;97936.72;4957662;28;20471;-78
2023/07/22 06:19:52;;;;;;;9.13;4.30;;;;;;;15.56;74.04;97939.34;4955677;28;20475;-83
2023/07/22 06:22:19;;;;;;;3.73;3.40;;;;;;;15.46;73.48;97937.19;4953427;28;20476;-81
2023/07/22 06:24:46;;;;;;;3.53;3.23;;;;;;;15.76;72.88;97939.81;4958620;28;20464;-82
2023/07/22 06:27:13;;;;;;;11.53;3.77;;;;;;;16.02;71.99;97939.31;4953079;28;20513;-82
2023/07/22 06:29:40;;;;;;;3.70;3.40;;;;;;;15.93;72.43;97938.03;4955013;28;20460;-81
2023/07/22 06:32:07;;;;;;;3.70;3.23;;;;;;;16.17;71.40;97946.19;4958553;28;20503;-80
2023/07/22 06:34:35;;;;;;;3.20;3.00;;;;;;;16.63;69.17;97945.22;4953764;28;20487;-81
2023/07/22 06:37:02;;;;;;;3.27;2.80;;;;;;;16.56;69.46;97945.41;4952921;28;20463;-80
2023/07/22 06:39:29;;;;;;;3.40;3.10;;;;;;;16.81;68.03;97947.00;4955203;28;20498;-80
2023/07/22 06:41:57;;;;;;;3.80;3.50;;;;;;;16.28;70.38;97950.78;4961813;28;21065;-80
2023/07/22 06:44:24;;;;;;;5.53;3.30;;;;;;;16.72;69.50;97952.00;4955367;28;20546;-79
2023/07/22 06:46:51;;;;;;;6.50;3.90;;;;;;;16.60;69.64;97949.28;4956017;28;20459;-79
2023/07/22 06:49:20;;;;;;;3.57;3.27;;;;;;;16.37;70.52;97955.66;4953085;28;20967;-80
2023/07/22 06:51:48;;;;;;;3.60;3.30;;;;;;;16.76;69.63;97950.44;4955166;28;20518;-79
2023/07/22 06:54:15;;;;;;;3.53;3.27;;;;;;;17.19;67.71;97944.41;4952122;28;20530;-80
2023/07/22 06:56:41;;;;;;;3.30;3.00;;;;;;;17.66;65.63;97946.84;4960662;28;20556;-79
2023/07/22 06:59:08;;;;;;;3.37;3.07;;;;;;;17.52;65.04;97942.78;4953375;28;20459;-80
2023/07/22 07:01:35;;;;;;;4.07;2.97;;;;;;;17.46;65.97;97959.13;4947837;28;20483;-80
2023/07/22 07:04:02;;;;;;;3.00;2.70;;;;;;;17.95;64.54;97953.88;4957707;28;20460;-81
2023/07/22 07:06:29;;;;;;;3.10;2.80;;;;;;;17.67;65.16;97951.25;4953197;28;20468;-81
2023/07/22 07:09:00;;;;;;;3.17;2.87;;;;;;;18.26;63.67;97954.28;4957682;28;20460;-81
2023/07/22 07:11:26;;;;;;;3.20;2.90;;;;;;;18.75;61.29;97958.81;4961052;28;20557;-81
2023/07/22 07:13:53;;;;;;;3.33;3.10;;;;;;;18.24;62.25;97956.47;4951333;28;20558;-79
2023/07/22 07:16:21;;;;;;;2.90;2.60;;;;;;;18.68;62.15;97957.34;4951074;28;20537;-80
2023/07/22 07:18:48;;;;;;;3.00;2.80;;;;;;;18.20;62.77;97956.13;4950132;28;20455;-80
2023/07/22 07:21:15;;;;;;;3.20;3.00;;;;;;;18.35;62.24;97955.53;4951037;28;20502;-80
2023/07/22 07:23:42;;;;;;;3.50;3.20;;;;;;;18.29;63.04;97954.63;4957467;28;20455;-80
2023/07/22 07:26:10;;;;;;;3.37;2.77;;;;;;;19.05;61.30;97949.25;4962415;28;20451;-81
2023/07/22 07:28:37;;;;;;;3.43;2.67;;;;;;;18.94;62.15;97953.78;4959519;28;20542;-80
2023/07/22 07:31:04;;;;;;;2.80;2.60;;;;;;;19.60;57.73;97953.63;4965360;28;20479;-80
2023/07/22 07:33:30;;;;;;;2.63;2.33;;;;;;;19.89;56.94;97952.19;4973367;28;20454;-78
2023/07/22 07:35:59;;;;;;;2.90;2.33;;;;;;;19.72;55.56;97948.78;4970633;28;20463;-78
2023/07/22 07:38:26;;;;;;;2.67;2.47;;;;;;;20.20;54.72;97952.38;4966096;28;20500;-78
2023/07/22 07:40:53;;;;;;;2.60;2.43;;;;;;;20.70;52.79;97949.09;4968440;28;20913;-78
2023/07/22 07:43:22;;;;;;;2.83;2.30;;;;;;;19.76;54.74;97953.47;4964168;28;20475;-77
2023/07/22 07:45:48;;;;;;;2.47;2.27;;;;;;;20.28;53.63;97949.13;4966098;28;20474;-77
2023/07/22 07:48:15;;;;;;;2.40;2.20;;;;;;;20.85;52.58;97949.13;4964860;28;20550;-77
2023/07/22 07:50:42;;;;;;;3.30;3.00;;;;;;;20.31;53.85;97948.59;4962105;28;20471;-77
2023/07/22 07:53:09;;;;;;;2.70;2.47;;;;;;;19.76;55.83;97949.91;4928992;28;20490;-79
2023/07/22 07:55:36;;;;;;;3.53;2.50;;;;;;;20.00;57.82;97951.16;4939714;28;20516;-79
2023/07/22 07:58:03;;;;;;;2.87;2.67;;;;;;;19.67;58.07;97952.31;4962925;28;20454;-79
2023/07/22 08:00:31;;;;;;;3.20;2.40;;;;;;;20.04;56.14;97949.56;4961773;28;20502;-79
2023/07/22 08:02:58;;;;;;;3.93;3.03;;;;;;;19.97;56.88;97946.19;4960009;28;20474;-79
2023/07/22 08:05:25;;;;;;;2.77;2.50;;;;;;;19.58;57.66;97955.78;4961179;28;20490;-78
2023/07/22 08:07:52;;;;;;;2.77;2.57;;;;;;;19.77;56.88;97949.66;4960025;28;21067;-78
2023/07/22 08:10:19;;;;;;;2.80;2.60;;;;;;;20.35;54.60;97956.06;4966107;28;20991;-79
2023/07/22 08:12:46;;;;;;;2.63;2.43;;;;;;;20.14;55.22;97948.78;4958674;28;20493;-79
2023/07/22 08:15:13;;;;;;;4.00;3.03;;;;;;;20.88;53.45;97953.25;4964071;28;21100;-80
2023/07/22 08:17:41;;;;;;;3.77;2.70;;;;;;;21.60;51.72;97946.78;4966397;28;20546;-79
2023/07/22 08:20:10;;;;;;;2.70;2.50;;;;;;;22.14;49.07;97947.03;4965778;28;20498;-79
2023/07/22 08:22:37;;;;;;;2.70;2.50;;;;;;;23.08;45.44;97954.41;4960481;28;20570;-80
2023/07/22 08:25:04;;;;;;;2.70;2.50;;;;;;;23.17;44.57;97946.34;4954831;28;20458;-79
2023/07/22 08:27:31;;;;;;;2.90;2.40;;;;;;;23.28;44.24;97942.41;4964364;28;20491;-79
2023/07/22 08:29:58;;;;;;;2.10;2.00;;;;;;;25.43;39.95;97937.88;4956094;28;20467;-79
2023/07/22 08:32:25;;;;;;;2.60;2.40;;;;;;;26.82;37.16;97939.84;4956313;28;20482;-79
2023/07/22 08:34:53;;;;;;;2.20;2.10;;;;;;;25.08;39.79;97938.41;4966463;28;20486;-79
2023/07/22 08:37:20;;;;;;;2.50;2.30;;;;;;;27.55;35.79;97941.53;4959580;28;20543;-80
2023/07/22 08:39:47;;;;;;;2.20;2.10;;;;;;;27.35;35.19;97937.28;4955305;28;20566;-78
2023/07/22 08:42:15;;;;;;;3.17;2.10;;;;;;;26.18;37.62;97930.53;4961204;28;20562;-80
2023/07/22 08:44:44;;;;;;;2.43;2.23;;;;;;;25.43;39.73;97932.31;4967165;28;20519;-79
2023/07/22 08:47:14;;;;;;;2.50;2.30;;;;;;;24.87;40.43;97929.53;4957541;28;20463;-79
2023/07/22 08:49:42;;;;;;;2.57;2.37;;;;;;;22.91;44.52;97931.06;4959020;28;20495;-80
2023/07/22 08:52:11;;;;;;;2.67;2.47;;;;;;;22.76;45.86;97929.97;4958705;28;20483;-80
2023/07/22 08:54:38;;;;;;;2.73;2.53;;;;;;;22.70;45.31;97936.66;4955269;28;20962;-79
2023/07/22 08:57:06;;;;;;;2.57;2.37;;;;;;;21.53;49.00;97932.47;4962174;28;20498;-79
2023/07/22 08:59:33;;;;;;;2.60;2.40;;;;;;;22.18;47.71;97939.84;4968969;28;20457;-79
2023/07/22 09:02:00;;;;;;;3.10;2.27;;;;;;;23.91;43.05;97930.59;4962704;28;20551;-80
2023/07/22 09:04:27;;;;;;;3.03;2.50;;;;;;;25.04;39.56;97929.03;4954514;28;20960;-74
2023/07/22 09:06:54;;;;;;;2.13;2.00;;;;;;;24.24;41.36;97938.00;4967010;28;20503;-80
2023/07/22 09:09:25;;;;;;;2.90;2.70;;;;;;;23.57;42.38;97934.22;4967082;28;20459;-79
2023/07/22 09:11:53;;;;;;;2.90;2.30;;;;;;;23.82;42.34;97930.41;4966695;28;20483;-81
2023/07/22 09:14:20;;;;;;;2.50;2.30;;;;;;;23.70;43.23;97938.28;4964883;28;20459;-80
2023/07/22 09:16:47;;;;;;;2.90;2.70;;;;;;;22.31;44.41;97933.75;4962410;28;20962;-79
2023/07/22 09:19:14;;;;;;;2.63;2.43;;;;;;;22.16;45.04;97932.97;4964989;28;21054;-79
2023/07/22 09:21:40;;;;;;;3.00;2.47;;;;;;;22.35;44.22;97934.03;4960763;28;21567;-78
2023/07/22 09:24:21;;;;;;;3.00;2.33;;;;;;;22.93;43.26;97934.34;4958389;28;20460;-79
2023/07/22 09:26:49;;;;;;;2.60;2.40;;;;;;;24.15;42.39;97922.34;4958857;28;20474;-79
2023/07/22 09:29:17;;;;;;;3.77;2.00;;;;;;;25.24;38.49;97914.91;4961397;28;21033;-79
2023/07/22 09:31:53;;;;;;;2.43;2.23;;;;;;;25.04;39.21;97921.53;4954768;28;20949;-79
2023/07/22 09:34:22;;;;;;;2.40;2.10;;;;;;;25.09;38.89;97915.94;4959610;28;20487;-79
2023/07/22 09:36:52;;;;;;;2.53;2.33;;;;;;;25.75;37.60;97914.09;4963332;28;20456;-81
2023/07/22 09:39:20;;;;;;;2.60;2.23;;;;;;;26.06;36.78;97917.97;4951739;28;20542;-84
2023/07/22 09:41:47;;;;;;;3.77;1.93;;;;;;;25.88;34.99;97921.63;4962575;28;20636;-80
2023/07/22 09:44:15;;;;;;;2.30;2.10;;;;;;;25.26;36.64;97914.59;4957442;28;20447;-79
2023/07/22 09:46:42;;;;;;;2.03;1.83;;;;;;;24.43;37.84;97924.25;4962243;28;21010;-80
2023/07/22 09:49:11;;;;;;;3.57;2.23;;;;;;;24.52;38.55;97921.69;4955114;28;20522;-80
2023/07/22 09:51:39;;;;;;;26.47;4.47;;;;;;;24.60;38.50;97910.78;4961092;28;20478;-79
2023/07/22 09:54:06;;;;;;;2.50;2.30;;;;;;;24.17;38.18;97914.56;4958297;28;20466;-79
2023/07/22 09:56:44;;;;;;;2.93;2.30;;;;;;;23.83;39.71;97917.41;4961237;28;20553;-81
2023/07/22 09:59:12;;;;;;;2.70;2.50;;;;;;;23.92;39.85;97913.72;4956714;28;20873;-79
2023/07/22 10:01:40;;;;;;;3.00;2.40;;;;;;;24.75;38.78;97901.44;4957654;28;20518;-79
2023/07/22 10:04:08;;;;;;;2.20;2.00;;;;;;;27.08;34.52;97904.81;4956330;28;20455;-80
2023/07/22 10:06:35;;;;;;;1.83;1.73;;;;;;;27.19;33.39;97900.69;4958761;28;20459;-79
2023/07/22 10:09:06;;;;;;;1.90;1.80;;;;;;;27.08;32.59;97910.38;4956560;28;20483;-80
2023/07/22 10:11:35;;;;;;;1.90;1.80;;;;;;;27.73;32.50;97907.19;4955037;28;20490;-80
2023/07/22 10:14:03;;;;;;;2.00;1.90;;;;;;;28.99;29.94;97899.25;4955685;28;20495;-80
2023/07/22 10:16:29;;;;;;;4.67;1.97;;;;;;;27.79;31.31;97907.88;4958262;28;20455;-80
2023/07/22 10:18:58;;;;;;;2.20;1.70;;;;;;;27.65;32.29;97907.94;4956020;28;20456;-81
2023/07/22 10:21:25;;;;;;;2.60;1.90;;;;;;;27.94;32.22;97905.50;4956848;28;20542;-79
2023/07/22 10:23:52;;;;;;;1.83;1.73;;;;;;;27.87;31.01;97905.16;4955021;28;20456;-81
2023/07/22 10:26:20;;;;;;;3.40;3.00;;;;;;;27.26;32.59;97905.81;4955686;28;20456;-83
2023/07/22 10:28:48;;;;;;;3.27;2.97;;;;;;;26.96;33.14;97899.00;4955962;28;20477;-79
2023/07/22 10:31:18;;;;;;;2.70;2.07;;;;;;;25.91;33.43;97906.34;4952753;28;21011;-80
2023/07/22 10:33:46;;;;;;;2.40;1.77;;;;;;;26.09;32.86;97906.25;4958667;28;20546;-80
2023/07/22 10:36:16;;;;;;;3.57;1.70;;;;;;;25.07;34.99;97900.75;4957541;28;20459;-80
2023/07/22 10:38:43;;;;;;;2.03;1.73;;;;;;;25.70;34.84;97903.09;4966106;28;20482;-80
2023/07/22 10:41:16;;;;;;;2.00;1.80;;;;;;;25.03;34.57;97889.44;4966035;28;20912;-80
2023/07/22 10:43:54;;;;;;;1.83;1.70;;;;;;;24.04;36.35;97891.22;4964795;28;20463;-79
2023/07/22 10:46:32;;;;;;;2.20;1.87;;;;;;;23.57;38.30;97894.72;4970854;28;20461;-80
2023/07/22 10:49:09;;;;;;;2.13;1.93;;;;;;;24.56;35.13;97893.13;4970353;28;20481;-83
2023/07/22 10:51:37;;;;;;;1.80;1.70;;;;;;;25.55;32.42;97884.75;4961015;28;20846;-81
2023/07/22 10:54:12;;;;;;;1.83;1.60;;;;;;;25.96;31.62;97879.34;4960011;28;20470;-80
2023/07/22 10:56:39;;;;;;;1.70;1.60;;;;;;;26.65;29.79;97876.56;4957237;28;20456;-80
2023/07/22 10:59:06;;;;;;;2.17;1.90;;;;;;;26.57;29.85;97877.31;4954925;28;20463;-80
2023/07/22 11:01:39;;;;;;;2.13;1.67;;;;;;;26.72;30.71;97872.25;4960310;28;20897;-80
2023/07/22 11:04:08;;;;;;;1.83;1.73;;;;;;;27.96;27.98;97878.19;4957978;28;20538;-80
2023/07/22 11:06:35;;;;;;;1.63;1.53;;;;;;;29.61;26.58;97879.41;4952906;28;20490;-80
2023/07/22 11:09:04;;;;;;;3.53;1.70;;;;;;;29.73;25.43;97869.22;4956004;28;20463;-82
2023/07/22 11:11:38;;;;;;;2.20;2.10;;;;;;;30.12;25.33;97863.75;4955461;28;20522;-81
2023/07/22 11:14:18;;;;;;;1.90;1.80;;;;;;;28.47;26.40;97867.63;4952488;28;20537;-81
2023/07/22 11:16:46;;;;;;;2.27;2.00;;;;;;;28.65;27.02;97853.41;4953317;28;20535;-81
2023/07/22 11:19:13;;;;;;;1.53;1.43;;;;;;;30.00;25.13;97865.25;4952407;28;20456;-81
2023/07/22 11:21:41;;;;;;;1.57;1.47;;;;;;;28.24;26.86;97855.75;4962493;28;20570;-81
2023/07/22 11:24:10;;;;;;;2.73;1.70;;;;;;;27.84;28.79;97849.31;4951655;28;20466;-80
2023/07/22 11:26:37;;;;;;;1.80;1.70;;;;;;;27.30;29.44;97854.81;4951822;28;20518;-78
2023/07/22 11:29:05;;;;;;;1.90;1.80;;;;;;;27.48;29.09;97846.63;4952142;28;20538;-80
2023/07/22 11:31:32;;;;;;;1.50;1.40;;;;;;;25.97;31.09;97852.44;4953256;28;20571;-80
2023/07/22 11:33:59;;;;;;;3.73;1.97;;;;;;;25.64;30.96;97843.34;4951924;28;20464;-81
2023/07/22 11:36:26;;;;;;;1.93;1.80;;;;;;;25.14;31.54;97850.50;4958246;28;20464;-80